Huvudsida
METAR-TAF:

METAR-TAF

Flygplatser :

Ørsta-Volda flygplats. Hovden

Ørsta-Volda, Norge

latitud: 62-11N, longitud: 006-04E, höjd: 7 m

Aktuellt väderrapport

Denna rapport gjordes för 5 timmar och 34 minuter sedan, klockan 21:20 UTC
Vind 1 kt varierande vindriktning
Temperatur 6°C
Fuktighet 93%
Tryck 1026 hPa
Sikt 10 km eller mer
Få moln på en höjd av 1300 ft
Spridda moln på en höjd av 1900 ft
Brutna moln på en höjd av 2500 ft
skurar i närheten

METAR: ENOV 182120Z VRB01KT 9999 VCSH FEW013 SCT019 BKN025 06/05 Q1026 RMK WIND 2175FT 26006KT

Tid: 04:54 (02:54 UTC)


TAF: saknas

Aktuella väderrapporter och prognoser från 4000 flygplatser (METAR- och TAF-rapporter).

De tillgängliga stationerna syns som gula och röda prickar på kartan.

För musen över prickarna för att se namnen på stationerna.

Klicka sedan för att få väderrapporter och prognoser.

För att ändra kartan: Klicka på de gröna knapparna med ett svart kors på för att zooma in; den gröna knappen med ett streck på för att zooma ut; eller på de gröna pilarna för angränsande kartor.


METAR-TAF: